Time;durP1;ratioP1;P1;durP2;ratioP2;P2;SDS_P1;SDS_P2;PMS_P1;PMS_P2;Temp;Humidity;BMP_temperature;BMP_pressure;BME280_temperature;BME280_humidity;BME280_pressure;Samples;Min_cycle;Max_cycle;Signal;HPM_P1;HPM_P2
2023/09/30 00:00:00;;;;;;;811.28;709.28;;;;;;;;;;4914855;29;20442;-70
2023/09/30 00:02:35;;;;;;;810.60;690.88;;;;;;;;;;4914795;29;20449;-69
2023/09/30 00:05:04;;;;;;;810.17;709.22;;;;;;;;;;4926799;29;20446;-70
2023/09/30 00:07:32;;;;;;;827.78;737.10;;;;;;;;;;4928977;29;20447;-70
2023/09/30 00:09:59;;;;;;;817.00;709.63;;;;;;;;;;4929283;29;20447;-70
2023/09/30 00:12:27;;;;;;;810.13;711.10;;;;;;;;;;4927871;29;20436;-70
2023/09/30 00:14:54;;;;;;;801.65;672.47;;;;;;;;;;4923294;29;20458;-70
2023/09/30 00:17:21;;;;;;;796.22;604.00;;;;;;;;;;4916665;29;20445;-69
2023/09/30 00:19:52;;;;;;;797.63;606.90;;;;;;;;;;4927435;29;20883;-70
2023/09/30 00:22:21;;;;;;;791.72;594.30;;;;;;;;;;4920128;29;25173;-70
2023/09/30 00:24:51;;;;;;;790.90;638.75;;;;;;;;;;4930431;29;20471;-69
2023/09/30 00:27:18;;;;;;;799.60;666.85;;;;;;;;;;4931314;29;20435;-69
2023/09/30 00:29:48;;;;;;;801.88;678.58;;;;;;;;;;4922082;29;20482;-69
2023/09/30 00:32:16;;;;;;;798.75;693.80;;;;;;;;;;4921874;29;20439;-69
2023/09/30 00:34:43;;;;;;;809.90;710.35;;;;;;;;;;4920102;29;20444;-69
2023/09/30 00:37:10;;;;;;;809.25;708.17;;;;;;;;;;4921082;29;20436;-69
2023/09/30 00:39:37;;;;;;;801.63;698.00;;;;;;;;;;4918707;29;20449;-69
2023/09/30 00:42:04;;;;;;;801.00;676.85;;;;;;;;;;4923346;29;20443;-69
2023/09/30 00:44:33;;;;;;;801.28;684.75;;;;;;;;;;4925652;29;20473;-70
2023/09/30 00:47:00;;;;;;;816.30;726.67;;;;;;;;;;4919641;29;20799;-69
2023/09/30 00:49:28;;;;;;;813.90;724.67;;;;;;;;;;4902056;29;20527;-70
2023/09/30 00:51:56;;;;;;;811.88;670.50;;;;;;;;;;4914583;29;20496;-69
2023/09/30 00:54:30;;;;;;;809.60;679.97;;;;;;;;;;4925086;29;20450;-69
2023/09/30 00:56:59;;;;;;;808.70;675.38;;;;;;;;;;4926057;29;20448;-69
2023/09/30 00:59:31;;;;;;;809.40;687.37;;;;;;;;;;4926976;29;20500;-69
2023/09/30 01:01:59;;;;;;;806.78;686.60;;;;;;;;;;4901451;29;20459;-70
2023/09/30 01:04:33;;;;;;;807.47;701.78;;;;;;;;;;4928182;29;21531;-69
2023/09/30 01:07:00;;;;;;;808.27;702.03;;;;;;;;;;4926765;29;20443;-70
2023/09/30 01:09:27;;;;;;;813.97;699.58;;;;;;;;;;4906962;29;20518;-72
2023/09/30 01:12:09;;;;;;;811.17;674.70;;;;;;;;;;4926082;29;20433;-69
2023/09/30 01:14:40;;;;;;;817.03;672.20;;;;;;;;;;4929854;29;20496;-69
2023/09/30 01:17:13;;;;;;;817.08;678.28;;;;;;;;;;4927353;29;20445;-69
2023/09/30 01:19:44;;;;;;;813.17;676.33;;;;;;;;;;4920892;29;20445;-69
2023/09/30 01:22:11;;;;;;;813.28;683.80;;;;;;;;;;4904574;29;20441;-71
2023/09/30 01:24:42;;;;;;;813.70;682.35;;;;;;;;;;4924251;29;20465;-69
2023/09/30 01:27:10;;;;;;;811.97;683.95;;;;;;;;;;4916532;29;20471;-69
2023/09/30 01:29:40;;;;;;;815.83;688.08;;;;;;;;;;4926976;29;20453;-69
2023/09/30 01:32:10;;;;;;;819.65;704.30;;;;;;;;;;4922313;29;20482;-69
2023/09/30 01:34:37;;;;;;;811.08;689.13;;;;;;;;;;4923290;29;20448;-69
2023/09/30 01:37:04;;;;;;;816.17;705.10;;;;;;;;;;4921535;29;20848;-69
2023/09/30 01:39:34;;;;;;;812.83;703.17;;;;;;;;;;4927823;29;20494;-69
2023/09/30 01:42:01;;;;;;;813.00;701.67;;;;;;;;;;4921432;29;20521;-69
2023/09/30 01:44:28;;;;;;;805.72;692.25;;;;;;;;;;4929774;29;20447;-68
2023/09/30 01:46:55;;;;;;;811.05;696.10;;;;;;;;;;4927960;29;20993;-69
2023/09/30 01:49:24;;;;;;;810.13;707.92;;;;;;;;;;4926249;29;20807;-68
2023/09/30 01:51:51;;;;;;;812.75;700.78;;;;;;;;;;4928617;29;20462;-69
2023/09/30 01:54:18;;;;;;;822.47;680.20;;;;;;;;;;4923688;29;20440;-69
2023/09/30 01:56:49;;;;;;;794.25;555.35;;;;;;;;;;4928299;29;20435;-69
2023/09/30 01:59:17;;;;;;;793.58;575.45;;;;;;;;;;4927996;29;20515;-70
2023/09/30 02:01:45;;;;;;;796.90;590.92;;;;;;;;;;4918124;29;20533;-69
2023/09/30 02:04:17;;;;;;;805.70;627.47;;;;;;;;;;4920762;29;20452;-69
2023/09/30 02:06:44;;;;;;;799.30;629.10;;;;;;;;;;4922670;29;20451;-69
2023/09/30 02:09:12;;;;;;;789.40;621.47;;;;;;;;;;4921185;29;20541;-69
2023/09/30 02:11:41;;;;;;;774.70;582.10;;;;;;;;;;4923843;29;20433;-69
2023/09/30 02:14:08;;;;;;;518.83;425.90;;;;;;;;;;4927648;29;20439;-69
2023/09/30 02:16:39;;;;;;;307.38;280.25;;;;;;;;;;4922660;29;20442;-69
2023/09/30 02:19:06;;;;;;;292.42;266.73;;;;;;;;;;4929954;29;20446;-69
2023/09/30 02:21:35;;;;;;;665.20;604.67;;;;;;;;;;4906070;29;20526;-69
2023/09/30 02:24:02;;;;;;;636.53;570.88;;;;;;;;;;4929017;29;20900;-69
2023/09/30 02:26:32;;;;;;;687.28;618.67;;;;;;;;;;4922525;29;20962;-69
2023/09/30 02:28:59;;;;;;;745.17;624.40;;;;;;;;;;4918582;29;20441;-69
2023/09/30 02:31:27;;;;;;;778.50;622.78;;;;;;;;;;4925202;29;20510;-69
2023/09/30 02:33:57;;;;;;;732.23;624.70;;;;;;;;;;4922551;29;20467;-70
2023/09/30 02:36:25;;;;;;;736.85;621.95;;;;;;;;;;4921293;29;21193;-69
2023/09/30 02:38:55;;;;;;;309.75;282.15;;;;;;;;;;4925108;29;20503;-69
2023/09/30 02:41:22;;;;;;;782.15;626.65;;;;;;;;;;4928164;29;20449;-69
2023/09/30 02:43:49;;;;;;;701.42;626.63;;;;;;;;;;4928275;29;20843;-69
2023/09/30 02:46:16;;;;;;;692.42;621.05;;;;;;;;;;4923644;29;20439;-69
2023/09/30 02:48:44;;;;;;;454.83;412.67;;;;;;;;;;4927540;29;20443;-69
2023/09/30 02:51:11;;;;;;;570.03;516.77;;;;;;;;;;4921141;29;20453;-69
2023/09/30 02:53:39;;;;;;;341.33;309.25;;;;;;;;;;4907697;29;20482;-69
2023/09/30 02:56:06;;;;;;;186.50;171.40;;;;;;;;;;4922999;29;20522;-69
2023/09/30 02:58:34;;;;;;;228.00;209.00;;;;;;;;;;4923358;29;20459;-69
2023/09/30 03:01:01;;;;;;;315.60;286.57;;;;;;;;;;4921463;29;20451;-69
2023/09/30 03:03:28;;;;;;;433.13;389.98;;;;;;;;;;4921779;29;20455;-69
2023/09/30 03:05:57;;;;;;;473.55;427.08;;;;;;;;;;4919729;29;21226;-69
2023/09/30 03:08:25;;;;;;;650.47;594.17;;;;;;;;;;4929314;29;20446;-70
2023/09/30 03:10:52;;;;;;;676.53;618.25;;;;;;;;;;4922195;29;20518;-69
2023/09/30 03:13:22;;;;;;;688.20;628.35;;;;;;;;;;4924201;29;20444;-69
2023/09/30 03:15:53;;;;;;;705.90;640.03;;;;;;;;;;4919600;29;20526;-69
2023/09/30 03:18:26;;;;;;;702.65;637.15;;;;;;;;;;4921260;29;20503;-69
2023/09/30 03:21:00;;;;;;;695.70;628.60;;;;;;;;;;4906120;29;20522;-69
2023/09/30 03:23:30;;;;;;;705.92;639.67;;;;;;;;;;4923947;29;20973;-69
2023/09/30 03:26:01;;;;;;;723.13;649.10;;;;;;;;;;4917767;29;20458;-69
2023/09/30 03:28:28;;;;;;;716.53;640.22;;;;;;;;;;4924481;29;20551;-69
2023/09/30 03:30:56;;;;;;;725.78;632.97;;;;;;;;;;4924769;29;20442;-69
2023/09/30 03:33:24;;;;;;;752.72;642.53;;;;;;;;;;4921017;29;21043;-69
2023/09/30 03:35:51;;;;;;;855.83;629.63;;;;;;;;;;4931159;29;20439;-69
2023/09/30 03:38:19;;;;;;;824.58;640.25;;;;;;;;;;4919767;29;20444;-69
2023/09/30 03:40:47;;;;;;;837.45;644.67;;;;;;;;;;4925664;29;20785;-69
2023/09/30 03:43:16;;;;;;;883.63;640.63;;;;;;;;;;4903142;29;20443;-69
2023/09/30 03:45:43;;;;;;;814.33;655.40;;;;;;;;;;4918773;29;20437;-69
2023/09/30 03:48:11;;;;;;;803.42;651.40;;;;;;;;;;4930755;29;20514;-69
2023/09/30 03:50:38;;;;;;;838.80;658.97;;;;;;;;;;4921328;29;20435;-69
2023/09/30 03:53:07;;;;;;;875.85;629.65;;;;;;;;;;4925216;29;21191;-69
2023/09/30 03:55:37;;;;;;;873.72;640.35;;;;;;;;;;4906006;29;20449;-70
2023/09/30 03:58:04;;;;;;;856.15;663.80;;;;;;;;;;4926056;29;21009;-69
2023/09/30 04:00:31;;;;;;;858.67;664.17;;;;;;;;;;4925203;29;20474;-70
2023/09/30 04:02:59;;;;;;;855.72;625.67;;;;;;;;;;4919723;29;20441;-70
2023/09/30 04:05:31;;;;;;;856.60;630.83;;;;;;;;;;4908632;29;22917;-69
2023/09/30 04:08:01;;;;;;;831.28;637.40;;;;;;;;;;4922159;29;20468;-70
2023/09/30 04:10:31;;;;;;;868.60;608.50;;;;;;;;;;4925262;29;20431;-69
2023/09/30 04:12:58;;;;;;;866.72;632.70;;;;;;;;;;4920296;29;20429;-70
2023/09/30 04:15:25;;;;;;;858.53;606.40;;;;;;;;;;4925683;29;20431;-69
2023/09/30 04:17:53;;;;;;;862.93;621.23;;;;;;;;;;4919402;29;20484;-69
2023/09/30 04:20:22;;;;;;;853.92;609.35;;;;;;;;;;4926000;29;20441;-69
2023/09/30 04:22:50;;;;;;;856.28;611.53;;;;;;;;;;4924796;29;20483;-69
2023/09/30 04:25:18;;;;;;;853.03;599.83;;;;;;;;;;4931711;29;20439;-69
2023/09/30 04:27:47;;;;;;;850.67;623.20;;;;;;;;;;4925493;29;20451;-70
2023/09/30 04:30:16;;;;;;;858.20;614.58;;;;;;;;;;4919167;29;20484;-69
2023/09/30 04:32:44;;;;;;;856.30;625.97;;;;;;;;;;4926522;29;20437;-70
2023/09/30 04:35:11;;;;;;;855.22;622.70;;;;;;;;;;4924083;29;20440;-70
2023/09/30 04:37:39;;;;;;;849.40;611.58;;;;;;;;;;4926139;29;20476;-70
2023/09/30 04:40:07;;;;;;;850.63;622.55;;;;;;;;;;4927942;29;20530;-70
2023/09/30 04:42:37;;;;;;;840.95;630.75;;;;;;;;;;4925915;29;20526;-69
2023/09/30 04:45:07;;;;;;;838.60;627.88;;;;;;;;;;4916701;29;20451;-70
2023/09/30 04:47:34;;;;;;;830.25;630.17;;;;;;;;;;4922993;29;20440;-70
2023/09/30 04:50:07;;;;;;;856.35;638.45;;;;;;;;;;4926787;29;20778;-70
2023/09/30 04:52:35;;;;;;;867.92;623.78;;;;;;;;;;4925341;29;20470;-70
2023/09/30 04:55:03;;;;;;;866.65;634.08;;;;;;;;;;4925835;29;20510;-69
2023/09/30 04:57:31;;;;;;;867.90;618.83;;;;;;;;;;4913714;29;20443;-70
2023/09/30 04:59:59;;;;;;;861.67;634.55;;;;;;;;;;4923965;29;20441;-70
2023/09/30 05:02:26;;;;;;;866.67;639.05;;;;;;;;;;4923331;29;20963;-70
2023/09/30 05:04:54;;;;;;;866.30;632.55;;;;;;;;;;4926212;29;20441;-70
2023/09/30 05:07:24;;;;;;;866.47;634.92;;;;;;;;;;4932898;29;20922;-70
2023/09/30 05:09:51;;;;;;;869.13;638.03;;;;;;;;;;4930045;29;20989;-70
2023/09/30 05:12:18;;;;;;;867.55;636.70;;;;;;;;;;4926435;29;20462;-70
2023/09/30 05:14:54;;;;;;;869.15;639.50;;;;;;;;;;4923290;29;21135;-70
2023/09/30 05:17:25;;;;;;;866.05;637.90;;;;;;;;;;4920494;29;20523;-70
2023/09/30 05:19:53;;;;;;;871.38;651.03;;;;;;;;;;4901776;29;20971;-70
2023/09/30 05:22:24;;;;;;;867.72;646.67;;;;;;;;;;4916416;29;20522;-70
2023/09/30 05:24:56;;;;;;;868.85;659.05;;;;;;;;;;4924995;29;20443;-70
2023/09/30 05:27:23;;;;;;;865.67;666.20;;;;;;;;;;4923094;29;20479;-70
2023/09/30 05:29:50;;;;;;;865.53;649.88;;;;;;;;;;4929155;29;20439;-70
2023/09/30 05:32:20;;;;;;;860.33;648.47;;;;;;;;;;4926918;29;20435;-70
2023/09/30 05:34:48;;;;;;;863.47;655.80;;;;;;;;;;4919909;29;20441;-70
2023/09/30 05:37:15;;;;;;;861.03;658.25;;;;;;;;;;4923203;29;20439;-70
2023/09/30 05:39:44;;;;;;;857.17;656.27;;;;;;;;;;4929201;29;20455;-70
2023/09/30 05:42:11;;;;;;;853.35;661.25;;;;;;;;;;4919038;29;20529;-70
2023/09/30 05:44:38;;;;;;;845.47;657.17;;;;;;;;;;4917723;29;20932;-70
2023/09/30 05:47:06;;;;;;;843.08;657.33;;;;;;;;;;4927139;29;20814;-69
2023/09/30 05:49:33;;;;;;;832.15;661.85;;;;;;;;;;4925381;29;20503;-70
2023/09/30 05:52:00;;;;;;;824.38;644.95;;;;;;;;;;4927831;29;20463;-69
2023/09/30 05:54:28;;;;;;;810.42;646.40;;;;;;;;;;4921210;29;20905;-69
2023/09/30 05:56:56;;;;;;;802.30;637.50;;;;;;;;;;4913393;29;20437;-69
2023/09/30 05:59:25;;;;;;;809.13;625.00;;;;;;;;;;4920146;29;20988;-69
2023/09/30 06:01:55;;;;;;;810.42;626.53;;;;;;;;;;4921094;29;20443;-69
2023/09/30 06:04:22;;;;;;;820.47;636.63;;;;;;;;;;4911692;29;20454;-69
2023/09/30 06:06:50;;;;;;;829.70;644.10;;;;;;;;;;4922383;29;20448;-69
2023/09/30 06:09:24;;;;;;;833.70;647.97;;;;;;;;;;4921982;29;20483;-70
2023/09/30 06:11:52;;;;;;;835.08;653.97;;;;;;;;;;4922582;29;20460;-69
2023/09/30 06:14:19;;;;;;;843.70;647.47;;;;;;;;;;4926792;29;20473;-69
2023/09/30 06:16:47;;;;;;;826.13;662.95;;;;;;;;;;4929162;29;20869;-69
2023/09/30 06:19:15;;;;;;;824.08;672.08;;;;;;;;;;4919906;29;20936;-69
2023/09/30 06:21:42;;;;;;;818.25;674.60;;;;;;;;;;4904250;29;21047;-69
2023/09/30 06:24:10;;;;;;;813.67;675.05;;;;;;;;;;4922245;29;20473;-69
2023/09/30 06:26:37;;;;;;;818.78;677.03;;;;;;;;;;4923733;29;20443;-69
2023/09/30 06:29:07;;;;;;;817.75;679.95;;;;;;;;;;4925743;29;20490;-69
2023/09/30 06:31:34;;;;;;;825.15;671.53;;;;;;;;;;4925770;29;20501;-69
2023/09/30 06:34:01;;;;;;;829.75;683.00;;;;;;;;;;4922661;29;20435;-69
2023/09/30 06:36:28;;;;;;;843.40;674.72;;;;;;;;;;4926645;29;20468;-69
2023/09/30 06:38:55;;;;;;;850.65;679.60;;;;;;;;;;4918670;29;20502;-69
2023/09/30 06:41:23;;;;;;;857.55;681.42;;;;;;;;;;4926038;29;20895;-69
2023/09/30 06:43:51;;;;;;;862.47;663.70;;;;;;;;;;4918273;29;21264;-69
2023/09/30 06:46:18;;;;;;;856.47;632.85;;;;;;;;;;4924990;29;20985;-69
2023/09/30 06:48:46;;;;;;;863.17;664.55;;;;;;;;;;4917693;29;20828;-70
2023/09/30 06:51:14;;;;;;;862.85;658.30;;;;;;;;;;4919767;29;20528;-70
2023/09/30 06:53:42;;;;;;;861.35;651.78;;;;;;;;;;4914838;29;20476;-69
2023/09/30 06:56:09;;;;;;;863.60;628.70;;;;;;;;;;4909616;29;20431;-70
2023/09/30 06:58:36;;;;;;;871.25;664.70;;;;;;;;;;4925310;29;20498;-70
2023/09/30 07:01:03;;;;;;;873.28;657.85;;;;;;;;;;4913611;29;20445;-69
2023/09/30 07:03:32;;;;;;;881.30;672.88;;;;;;;;;;4928438;29;20533;-70
2023/09/30 07:06:03;;;;;;;873.97;653.30;;;;;;;;;;4927431;29;20946;-69
2023/09/30 07:08:30;;;;;;;889.25;684.60;;;;;;;;;;4920094;29;20455;-69
2023/09/30 07:10:58;;;;;;;881.13;625.53;;;;;;;;;;4917783;29;20441;-69
2023/09/30 07:13:25;;;;;;;899.08;666.42;;;;;;;;;;4921154;29;20928;-70
2023/09/30 07:15:52;;;;;;;903.00;673.90;;;;;;;;;;4924065;29;20491;-70
2023/09/30 07:18:20;;;;;;;908.35;683.08;;;;;;;;;;4920754;29;20448;-69
2023/09/30 07:20:47;;;;;;;908.97;688.70;;;;;;;;;;4913935;29;20774;-70
2023/09/30 07:23:14;;;;;;;917.15;693.42;;;;;;;;;;4912821;29;20440;-70
2023/09/30 07:25:49;;;;;;;916.80;703.55;;;;;;;;;;4923179;29;20440;-69
2023/09/30 07:28:17;;;;;;;922.63;696.30;;;;;;;;;;4927051;29;20449;-70
2023/09/30 07:30:44;;;;;;;925.40;699.20;;;;;;;;;;4923183;29;21185;-70
2023/09/30 07:33:12;;;;;;;929.13;708.72;;;;;;;;;;4921171;29;20447;-70
2023/09/30 07:35:39;;;;;;;937.10;699.33;;;;;;;;;;4922939;29;20466;-70
2023/09/30 07:38:06;;;;;;;944.75;717.22;;;;;;;;;;4922134;29;20441;-70
2023/09/30 07:40:33;;;;;;;951.55;725.40;;;;;;;;;;4928735;29;20525;-70
2023/09/30 07:43:00;;;;;;;962.50;732.37;;;;;;;;;;4921171;29;20850;-70
2023/09/30 07:45:28;;;;;;;966.83;748.25;;;;;;;;;;4912541;29;21002;-69
2023/09/30 07:47:58;;;;;;;960.88;748.03;;;;;;;;;;4922516;29;20985;-70
2023/09/30 07:50:25;;;;;;;966.50;756.92;;;;;;;;;;4924879;29;20439;-70
2023/09/30 07:52:53;;;;;;;960.70;770.88;;;;;;;;;;4922414;29;20439;-70
2023/09/30 07:55:20;;;;;;;917.42;758.47;;;;;;;;;;4921430;29;20441;-70
2023/09/30 07:57:56;;;;;;;953.28;763.35;;;;;;;;;;4917578;29;20439;-70
2023/09/30 08:00:26;;;;;;;974.40;772.65;;;;;;;;;;4925353;29;20459;-70
2023/09/30 08:02:53;;;;;;;968.85;758.60;;;;;;;;;;4929215;29;20443;-70
2023/09/30 08:05:20;;;;;;;967.28;757.65;;;;;;;;;;4926030;29;20439;-70
2023/09/30 08:07:48;;;;;;;969.72;767.17;;;;;;;;;;4924253;29;20443;-69
2023/09/30 08:10:16;;;;;;;972.25;770.00;;;;;;;;;;4915906;29;20537;-70
2023/09/30 08:12:49;;;;;;;931.22;780.00;;;;;;;;;;4918473;29;20441;-70
2023/09/30 08:15:17;;;;;;;966.00;783.05;;;;;;;;;;4919979;29;20442;-70
2023/09/30 08:17:44;;;;;;;975.40;784.05;;;;;;;;;;4927138;29;20435;-70
2023/09/30 08:20:13;;;;;;;963.65;774.55;;;;;;;;;;4914337;29;20459;-70
2023/09/30 08:22:40;;;;;;;936.35;756.03;;;;;;;;;;4921153;29;20525;-69
2023/09/30 08:25:11;;;;;;;933.58;754.20;;;;;;;;;;4930082;29;20526;-74
2023/09/30 08:27:38;;;;;;;940.50;757.73;;;;;;;;;;4930618;29;21196;-70
2023/09/30 08:30:06;;;;;;;953.28;766.22;;;;;;;;;;4925828;29;20542;-70
2023/09/30 08:32:34;;;;;;;959.75;770.20;;;;;;;;;;4928935;29;20926;-70
2023/09/30 08:35:03;;;;;;;955.07;771.97;;;;;;;;;;4932557;29;20443;-70
2023/09/30 08:37:33;;;;;;;954.17;768.22;;;;;;;;;;4925245;29;20446;-70
2023/09/30 08:40:00;;;;;;;950.65;764.83;;;;;;;;;;4917402;29;20489;-69
2023/09/30 08:42:32;;;;;;;940.45;757.35;;;;;;;;;;4919097;29;20547;-70
2023/09/30 08:45:00;;;;;;;936.28;757.38;;;;;;;;;;4930302;29;20989;-70
2023/09/30 08:47:28;;;;;;;927.67;739.75;;;;;;;;;;4928841;29;20525;-69
2023/09/30 08:49:59;;;;;;;931.00;754.92;;;;;;;;;;4927095;29;20465;-70
2023/09/30 08:52:27;;;;;;;933.88;753.67;;;;;;;;;;4930016;29;20447;-69
2023/09/30 08:54:54;;;;;;;942.83;761.42;;;;;;;;;;4922945;29;20522;-69
2023/09/30 08:57:21;;;;;;;946.70;771.72;;;;;;;;;;4921601;29;20441;-70
2023/09/30 08:59:50;;;;;;;952.20;779.17;;;;;;;;;;4914611;29;20448;-69
2023/09/30 09:02:17;;;;;;;949.70;770.45;;;;;;;;;;4913830;29;20448;-69
2023/09/30 09:04:46;;;;;;;948.63;775.20;;;;;;;;;;4926978;29;20444;-69
2023/09/30 09:07:13;;;;;;;952.83;779.13;;;;;;;;;;4921579;29;20981;-69
2023/09/30 09:09:40;;;;;;;966.65;792.85;;;;;;;;;;4928769;29;20447;-69
2023/09/30 09:12:19;;;;;;;965.47;793.28;;;;;;;;;;4926003;29;20917;-70
2023/09/30 09:14:47;;;;;;;963.67;790.57;;;;;;;;;;4925311;29;20477;-69
2023/09/30 09:17:15;;;;;;;963.83;784.77;;;;;;;;;;4929623;29;20436;-69
2023/09/30 09:19:43;;;;;;;959.75;783.53;;;;;;;;;;4923683;29;20462;-69
2023/09/30 09:22:10;;;;;;;975.42;798.25;;;;;;;;;;4923411;29;20497;-69
2023/09/30 09:24:46;;;;;;;982.13;806.45;;;;;;;;;;4923201;29;20501;-70
2023/09/30 09:27:17;;;;;;;980.70;798.80;;;;;;;;;;4930272;29;20442;-69
2023/09/30 09:29:45;;;;;;;982.67;808.00;;;;;;;;;;4914291;29;20513;-69
2023/09/30 09:32:16;;;;;;;988.50;819.63;;;;;;;;;;4925513;29;20502;-69
2023/09/30 09:34:43;;;;;;;994.17;826.97;;;;;;;;;;4925885;29;20914;-69
2023/09/30 09:37:15;;;;;;;999.67;830.42;;;;;;;;;;4923448;29;20440;-70
2023/09/30 09:39:55;;;;;;;992.50;827.87;;;;;;;;;;4924608;29;20834;-70
2023/09/30 09:42:25;;;;;;;956.95;824.97;;;;;;;;;;4920519;29;20439;-69
2023/09/30 09:44:55;;;;;;;1000.08;836.72;;;;;;;;;;4924377;29;20548;-69
2023/09/30 09:47:23;;;;;;;1003.93;834.37;;;;;;;;;;4927223;29;20441;-68
2023/09/30 09:49:56;;;;;;;1006.72;843.55;;;;;;;;;;4920269;29;20816;-68
2023/09/30 09:52:24;;;;;;;1006.33;841.20;;;;;;;;;;4917070;29;20496;-69
2023/09/30 09:54:51;;;;;;;1000.83;835.28;;;;;;;;;;4927677;29;20465;-69
2023/09/30 09:57:20;;;;;;;990.50;848.13;;;;;;;;;;4916606;29;20523;-69
2023/09/30 09:59:47;;;;;;;999.65;838.45;;;;;;;;;;4923401;29;20449;-70
2023/09/30 10:02:18;;;;;;;996.97;839.60;;;;;;;;;;4921476;29;20929;-69
2023/09/30 10:04:46;;;;;;;977.70;840.65;;;;;;;;;;4919146;29;20655;-70
2023/09/30 10:07:25;;;;;;;962.67;856.67;;;;;;;;;;4922114;29;21020;-70
2023/09/30 10:09:53;;;;;;;1021.10;869.35;;;;;;;;;;4919117;29;20485;-70
2023/09/30 10:12:21;;;;;;;993.85;868.22;;;;;;;;;;4925281;29;20984;-69
2023/09/30 10:14:48;;;;;;;1023.72;872.08;;;;;;;;;;4919643;29;20445;-69
2023/09/30 10:17:16;;;;;;;1012.47;854.42;;;;;;;;;;4925379;29;20534;-72
2023/09/30 10:20:02;;;;;;;1014.92;857.88;;;;;;;;;;4919909;29;20442;-70
2023/09/30 10:22:40;;;;;;;1006.47;849.03;;;;;;;;;;4912760;29;20458;-69
2023/09/30 10:25:34;;;;;;;970.75;868.28;;;;;;;;;;4919052;29;20469;-70
2023/09/30 10:28:21;;;;;;;971.47;876.37;;;;;;;;;;4921840;29;20495;-70
2023/09/30 10:31:07;;;;;;;978.58;884.28;;;;;;;;;;4912204;29;20533;-70
2023/09/30 10:33:37;;;;;;;1003.47;905.80;;;;;;;;;;4921163;29;20463;-70
2023/09/30 10:36:05;;;;;;;1001.67;906.53;;;;;;;;;;4923226;29;20936;-70
2023/09/30 10:38:39;;;;;;;1002.85;906.42;;;;;;;;;;4923791;29;20495;-70
2023/09/30 10:41:07;;;;;;;1025.72;925.58;;;;;;;;;;4919849;29;20488;-71
2023/09/30 10:43:38;;;;;;;1030.00;933.67;;;;;;;;;;4919596;29;20435;-70
2023/09/30 10:46:24;;;;;;;1017.50;926.05;;;;;;;;;;4916208;29;20460;-69
2023/09/30 10:48:52;;;;;;;1012.93;924.77;;;;;;;;;;4921275;29;20450;-69
2023/09/30 10:51:22;;;;;;;1002.47;916.63;;;;;;;;;;4922181;29;20980;-70
2023/09/30 10:54:03;;;;;;;1012.03;926.38;;;;;;;;;;4916182;29;20439;-70
2023/09/30 10:56:34;;;;;;;1038.47;936.33;;;;;;;;;;4922569;29;20502;-70
2023/09/30 10:59:02;;;;;;;1015.67;919.85;;;;;;;;;;4923551;29;20443;-70
2023/09/30 11:01:37;;;;;;;995.47;899.92;;;;;;;;;;4925138;29;20514;-69
2023/09/30 11:04:05;;;;;;;1044.32;918.03;;;;;;;;;;4916625;29;20545;-69
2023/09/30 11:06:35;;;;;;;1026.73;878.23;;;;;;;;;;4915561;29;20437;-70
2023/09/30 11:09:03;;;;;;;1014.42;864.42;;;;;;;;;;4916304;29;20462;-70
2023/09/30 11:11:43;;;;;;;1017.40;856.95;;;;;;;;;;4924073;29;20479;-69
2023/09/30 11:14:25;;;;;;;1020.30;859.47;;;;;;;;;;4923665;29;20911;-69
2023/09/30 11:16:57;;;;;;;993.85;867.97;;;;;;;;;;4902311;29;20432;-69
2023/09/30 11:19:24;;;;;;;1006.22;881.13;;;;;;;;;;4920381;29;20440;-71
2023/09/30 11:21:53;;;;;;;1029.93;885.88;;;;;;;;;;4922874;29;20475;-70
2023/09/30 11:24:20;;;;;;;1021.58;908.65;;;;;;;;;;4922101;29;20440;-70
2023/09/30 11:26:47;;;;;;;1044.25;922.58;;;;;;;;;;4925830;29;20496;-69
2023/09/30 11:29:16;;;;;;;1046.70;924.53;;;;;;;;;;4925105;29;20467;-70
2023/09/30 11:31:44;;;;;;;1051.78;933.13;;;;;;;;;;4896931;29;20527;-69
2023/09/30 11:34:12;;;;;;;1049.60;927.22;;;;;;;;;;4907439;29;21432;-70
2023/09/30 11:36:44;;;;;;;1047.15;925.95;;;;;;;;;;4920414;29;20451;-68
2023/09/30 11:39:22;;;;;;;1029.72;906.25;;;;;;;;;;4926815;29;20525;-69
2023/09/30 11:41:49;;;;;;;1031.85;902.42;;;;;;;;;;4917348;29;20528;-69
2023/09/30 11:44:17;;;;;;;1015.67;884.58;;;;;;;;;;4925149;29;20443;-70
2023/09/30 11:46:55;;;;;;;1003.20;888.17;;;;;;;;;;4917270;29;20528;-69
2023/09/30 11:49:27;;;;;;;993.30;860.75;;;;;;;;;;4912891;29;20441;-70
2023/09/30 11:51:55;;;;;;;1000.30;865.90;;;;;;;;;;4923049;29;20520;-69
2023/09/30 11:54:22;;;;;;;1002.92;865.45;;;;;;;;;;4919903;29;20471;-70
2023/09/30 11:56:50;;;;;;;1012.30;900.20;;;;;;;;;;4920804;29;20933;-70
2023/09/30 11:59:22;;;;;;;1001.42;863.35;;;;;;;;;;4930321;29;20439;-70
2023/09/30 12:01:49;;;;;;;1000.70;859.95;;;;;;;;;;4920351;29;21200;-70
2023/09/30 12:04:37;;;;;;;1005.03;867.90;;;;;;;;;;4922623;29;21171;-70
2023/09/30 12:07:06;;;;;;;1009.83;874.08;;;;;;;;;;4928192;29;20502;-70
2023/09/30 12:09:37;;;;;;;1020.37;892.20;;;;;;;;;;4913096;29;20455;-70
2023/09/30 12:12:04;;;;;;;1025.63;902.83;;;;;;;;;;4922458;29;20539;-69
2023/09/30 12:14:32;;;;;;;1030.45;906.50;;;;;;;;;;4930470;29;20992;-69
2023/09/30 12:16:59;;;;;;;1021.40;895.38;;;;;;;;;;4924874;29;20441;-70
2023/09/30 12:19:26;;;;;;;1020.75;888.17;;;;;;;;;;4928604;29;20472;-69
2023/09/30 12:21:54;;;;;;;1020.33;882.47;;;;;;;;;;4926670;29;20443;-69
2023/09/30 12:24:24;;;;;;;1022.70;882.92;;;;;;;;;;4926237;29;20444;-70
2023/09/30 12:26:52;;;;;;;1021.00;877.78;;;;;;;;;;4928879;29;20447;-69
2023/09/30 12:29:21;;;;;;;1025.90;887.25;;;;;;;;;;4921348;29;20463;-69
2023/09/30 12:31:50;;;;;;;1031.30;900.03;;;;;;;;;;4923875;29;20446;-70
2023/09/30 12:34:23;;;;;;;1038.27;913.47;;;;;;;;;;4921477;29;20543;-70
2023/09/30 12:36:51;;;;;;;1053.45;936.78;;;;;;;;;;4919029;29;20989;-70
2023/09/30 12:39:23;;;;;;;1055.20;938.30;;;;;;;;;;4925318;29;20948;-70
2023/09/30 12:41:52;;;;;;;1058.97;941.97;;;;;;;;;;4928578;29;20566;-70
2023/09/30 12:44:19;;;;;;;1072.90;955.25;;;;;;;;;;4923343;29;20445;-69
2023/09/30 12:46:47;;;;;;;1052.38;937.42;;;;;;;;;;4927800;29;20440;-72
2023/09/30 12:49:16;;;;;;;1050.43;937.17;;;;;;;;;;4924715;29;20447;-70
2023/09/30 12:51:43;;;;;;;1049.50;933.60;;;;;;;;;;4928651;29;20446;-70
2023/09/30 12:54:12;;;;;;;1050.93;935.37;;;;;;;;;;4920673;29;20447;-70
2023/09/30 12:56:39;;;;;;;1056.03;939.30;;;;;;;;;;4931178;29;20439;-69
2023/09/30 12:59:06;;;;;;;1050.95;934.63;;;;;;;;;;4922202;29;21005;-70
2023/09/30 13:01:34;;;;;;;1046.07;930.00;;;;;;;;;;4913909;29;20527;-71
2023/09/30 13:04:07;;;;;;;1043.57;926.33;;;;;;;;;;4922184;29;20470;-70
2023/09/30 13:06:35;;;;;;;1039.63;918.20;;;;;;;;;;4927098;29;20444;-71
2023/09/30 13:09:06;;;;;;;1041.18;921.97;;;;;;;;;;4912562;29;20453;-69
2023/09/30 13:11:33;;;;;;;1043.07;919.45;;;;;;;;;;4929921;29;20506;-69
2023/09/30 13:14:03;;;;;;;1044.72;928.92;;;;;;;;;;4921464;29;20440;-69
2023/09/30 13:16:31;;;;;;;1046.90;931.40;;;;;;;;;;4923062;29;20479;-69
2023/09/30 13:18:58;;;;;;;1022.20;897.00;;;;;;;;;;4919156;29;20445;-70
2023/09/30 13:21:26;;;;;;;981.88;855.92;;;;;;;;;;4925000;29;20870;-69
2023/09/30 13:23:53;;;;;;;955.00;823.35;;;;;;;;;;4918423;29;20535;-69
2023/09/30 13:26:21;;;;;;;945.83;813.45;;;;;;;;;;4924081;29;20537;-70
2023/09/30 13:28:48;;;;;;;1030.78;918.55;;;;;;;;;;4921468;29;20481;-69
2023/09/30 13:31:15;;;;;;;1054.13;937.97;;;;;;;;;;4916959;29;20439;-70
2023/09/30 13:33:42;;;;;;;1048.80;944.95;;;;;;;;;;4925136;29;20435;-69
2023/09/30 13:36:10;;;;;;;1038.85;924.00;;;;;;;;;;4920190;29;20464;-69
2023/09/30 13:38:37;;;;;;;1016.58;888.60;;;;;;;;;;4927192;29;20443;-68
2023/09/30 13:41:05;;;;;;;959.85;831.35;;;;;;;;;;4931692;29;20495;-69
2023/09/30 13:43:32;;;;;;;936.30;803.13;;;;;;;;;;4924070;29;21048;-69
2023/09/30 13:46:04;;;;;;;951.45;815.25;;;;;;;;;;4923829;29;20463;-69
2023/09/30 13:48:31;;;;;;;951.10;812.60;;;;;;;;;;4924797;29;20930;-68
2023/09/30 13:51:06;;;;;;;954.63;808.25;;;;;;;;;;4926247;29;20499;-68
2023/09/30 13:53:33;;;;;;;955.90;808.22;;;;;;;;;;4923594;29;20587;-68
2023/09/30 13:56:01;;;;;;;957.63;811.60;;;;;;;;;;4926030;29;20989;-68
2023/09/30 13:58:28;;;;;;;954.20;806.97;;;;;;;;;;4924713;29;20439;-68